Terminal Aerodrome Forecast
Issued by NWS

Home | Current Version | Previous Version | Graphics & Text | Print | Product List | Glossary On
Versions: 1 2 3 4 5 6 7 8 9 10 11 12 13 14 15 16 17 18 19
000
FTUS43 KGRB 171100 RRA
TAFRHI
TAF
KRHI 171142Z 1712/1812 11011G18KT 1SM -SN BR BKN008 OVC012
      TEMPO 1712/1713 1/2SM SN VV005
     FM171400 16009G15KT 2SM -SN SCT008 OVC015
      TEMPO 1715/1716 4SM -RASN BR
     FM171600 21008KT P6SM OVC015
     FM171900 25008KT P6SM BKN025
     FM180000 28004KT P6SM BKN015
     FM180600 28004KT 3SM BR SCT005=

USA.gov is the U.S. government's official web portal to all federal, state and local government web resources and services.